Time;durP1;ratioP1;P1;durP2;ratioP2;P2;SDS_P1;SDS_P2;PMS_P1;PMS_P2;Temp;Humidity;BMP_temperature;BMP_pressure;BME280_temperature;BME280_humidity;BME280_pressure;Samples;Min_cycle;Max_cycle;Signal;HPM_P1;HPM_P2
2022/12/05 00:00:21;;;;;;;;;35.75;24.50;;;;;7.27;61.82;101102.84;5022138;28;45196;-60
2022/12/05 00:02:46;;;;;;;;;28.75;16.50;;;;;7.25;61.48;101105.41;5020456;28;45013;-62
2022/12/05 00:05:12;;;;;;;;;37.50;28.25;;;;;7.20;61.82;101105.19;5027578;28;45315;-59
2022/12/05 00:07:37;;;;;;;;;29.25;26.75;;;;;7.18;61.81;101103.34;5019604;28;45205;-61
2022/12/05 00:10:04;;;;;;;;;32.25;25.25;;;;;7.14;61.85;101104.00;5016344;28;45137;-63
2022/12/05 00:12:30;;;;;;;;;30.75;27.50;;;;;7.14;62.11;101102.28;5011193;28;44934;-59
2022/12/05 00:14:55;;;;;;;;;38.00;33.75;;;;;7.09;61.32;101105.56;5019968;28;45286;-63
2022/12/05 00:17:20;;;;;;;;;40.00;24.25;;;;;7.04;61.31;101100.03;5014324;28;45166;-60
2022/12/05 00:19:46;;;;;;;;;33.25;27.50;;;;;7.14;60.94;101120.88;5021515;28;45870;-64
2022/12/05 00:22:11;;;;;;;;;33.00;29.00;;;;;7.14;61.68;101112.91;5013917;28;45107;-63
2022/12/05 00:24:38;;;;;;;;;36.25;29.75;;;;;7.09;61.18;101105.56;5024284;28;46925;-62
2022/12/05 00:27:03;;;;;;;;;31.75;26.25;;;;;7.13;61.74;101120.81;5024866;28;45087;-62
2022/12/05 00:29:29;;;;;;;;;29.75;25.50;;;;;7.15;61.99;101106.75;5025057;28;45277;-61
2022/12/05 00:31:54;;;;;;;;;36.00;28.75;;;;;7.15;61.20;101106.75;5031174;28;45540;-59
2022/12/05 00:34:19;;;;;;;;;34.50;26.00;;;;;7.22;61.05;101129.19;5029386;28;45148;-61
2022/12/05 00:36:45;;;;;;;;;33.25;25.75;;;;;7.00;61.48;101104.28;5015041;28;45165;-61
2022/12/05 00:39:14;;;;;;;;;34.00;29.25;;;;;7.16;61.61;101129.84;5012422;28;45515;-62
2022/12/05 00:41:41;;;;;;;;;35.50;28.25;;;;;7.13;62.43;101119.06;5022482;28;45105;-61
2022/12/05 00:44:07;;;;;;;;;18.75;18.50;;;;;7.15;61.79;101117.38;5027725;28;44967;-62
2022/12/05 00:46:34;;;;;;;;;35.00;30.50;;;;;7.12;61.77;101121.66;5031579;28;45145;-61
2022/12/05 00:49:00;;;;;;;;;39.00;28.25;;;;;7.08;61.63;101120.59;5025270;28;46150;-61
2022/12/05 00:51:38;;;;;;;;;31.50;28.50;;;;;7.09;61.60;101121.50;5024359;28;45218;-61
2022/12/05 00:54:08;;;;;;;;;33.50;29.50;;;;;7.06;61.36;101108.06;5017796;28;45077;-60
2022/12/05 00:56:34;;;;;;;;;35.25;26.00;;;;;7.11;61.72;101119.81;5014678;28;45056;-61
2022/12/05 00:59:01;;;;;;;;;27.50;25.75;;;;;7.05;61.64;101109.81;5028810;28;45629;-62
2022/12/05 01:01:31;;;;;;;;;30.25;26.50;;;;;7.13;61.48;101128.78;5021502;28;45047;-61
2022/12/05 01:03:58;;;;;;;;;31.75;28.75;;;;;7.14;61.91;101130.59;5028353;28;45027;-62
2022/12/05 01:06:25;;;;;;;;;41.00;34.50;;;;;7.05;62.37;101106.28;5023663;28;45221;-61
2022/12/05 01:08:53;;;;;;;;;33.25;26.75;;;;;7.19;62.15;101131.69;5020644;28;45890;-62
2022/12/05 01:11:19;;;;;;;;;39.75;30.75;;;;;7.19;62.13;101127.31;5009926;28;45074;-60
2022/12/05 01:13:45;;;;;;;;;28.25;24.50;;;;;7.05;61.16;101124.88;5026646;28;45243;-63
2022/12/05 01:16:28;;;;;;;;;33.00;29.25;;;;;7.13;61.87;101142.06;5029513;28;45201;-64
2022/12/05 01:18:55;;;;;;;;;41.50;24.50;;;;;7.13;62.37;101137.66;5014204;28;46122;-61
2022/12/05 01:21:20;;;;;;;;;41.50;25.75;;;;;7.06;62.34;101124.94;5017798;28;45104;-60
2022/12/05 01:23:46;;;;;;;;;33.25;29.00;;;;;7.18;62.12;101151.16;5018728;28;44998;-61
2022/12/05 01:26:14;;;;;;;;;31.25;29.00;;;;;7.13;62.04;101144.72;5017109;28;45349;-63
2022/12/05 01:28:40;;;;;;;;;39.50;25.25;;;;;7.15;61.95;101149.25;5029999;28;45770;-60
2022/12/05 01:31:07;;;;;;;;;28.25;27.00;;;;;7.19;61.17;101161.88;5014056;28;45215;-62
2022/12/05 01:33:34;;;;;;;;;44.25;34.25;;;;;7.18;61.92;101161.78;5018819;28;45433;-61
2022/12/05 01:36:00;;;;;;;;;42.25;31.00;;;;;7.18;62.15;101168.00;5015186;28;45140;-61
2022/12/05 01:38:25;;;;;;;;;37.00;29.00;;;;;7.04;62.24;101141.63;5014324;28;45168;-60
2022/12/05 01:41:00;;;;;;;;;43.25;31.50;;;;;7.22;62.26;101168.16;5025046;28;45279;-60
2022/12/05 01:43:25;;;;;;;;;61.25;46.50;;;;;7.15;61.75;101170.53;5014782;28;45124;-61
2022/12/05 01:45:50;;;;;;;;;61.75;42.25;;;;;6.95;61.59;101144.78;5019811;28;45105;-61
2022/12/05 01:48:25;;;;;;;;;56.25;42.50;;;;;6.99;61.25;101160.91;5025888;28;45674;-61
2022/12/05 01:50:51;;;;;;;;;54.50;44.25;;;;;7.03;61.70;101174.34;5018373;28;45099;-63
2022/12/05 01:53:18;;;;;;;;;48.50;38.00;;;;;7.08;61.63;101187.03;5026373;28;45046;-60
2022/12/05 01:55:46;;;;;;;;;53.25;40.50;;;;;6.96;62.60;101175.78;5013959;28;44876;-59
2022/12/05 01:58:12;;;;;;;;;46.25;40.50;;;;;7.05;62.34;101192.19;5028647;28;45971;-61
2022/12/05 02:00:39;;;;;;;;;47.50;35.00;;;;;7.06;61.60;101203.72;5025335;28;45054;-60
2022/12/05 02:03:08;;;;;;;;;44.75;36.75;;;;;7.11;61.29;101213.75;5031155;28;45476;-62
2022/12/05 02:05:36;;;;;;;;;42.00;35.00;;;;;7.11;61.99;101219.06;5014318;28;45035;-61
2022/12/05 02:08:07;;;;;;;;;48.00;35.25;;;;;7.15;61.35;101214.78;5018399;28;45955;-63
2022/12/05 02:10:37;;;;;;;;;27.75;25.25;;;;;7.09;61.66;101204.75;5026085;28;45108;-62
2022/12/05 02:13:40;;;;;;;;;37.25;32.00;;;;;7.13;61.41;101221.78;5039821;28;45065;-62
2022/12/05 02:16:29;;;;;;;;;45.50;34.25;;;;;6.95;61.02;101189.94;5025965;28;45576;-60
2022/12/05 02:19:17;;;;;;;;;40.50;32.75;;;;;7.00;61.42;101199.03;5015381;28;45406;-62
2022/12/05 02:22:00;;;;;;;;;43.75;31.50;;;;;6.92;61.52;101187.13;5012588;28;45255;-62
2022/12/05 02:24:47;;;;;;;;;38.50;32.75;;;;;6.98;61.79;101206.03;5013939;28;44967;-66
2022/12/05 02:27:44;;;;;;;;;36.00;29.75;;;;;6.94;61.51;101215.56;5013328;28;44931;-61
2022/12/05 02:30:19;;;;;;;;;47.00;37.50;;;;;6.83;62.29;101200.88;5012001;28;45272;-61
2022/12/05 02:33:06;;;;;;;;;39.00;33.00;;;;;6.78;62.74;101199.72;5024228;28;45022;-60
2022/12/05 02:35:59;;;;;;;;;34.50;33.75;;;;;6.83;61.87;101214.16;5010409;28;44956;-60
2022/12/05 02:38:51;;;;;;;;;36.75;29.50;;;;;6.81;62.22;101206.13;5015329;28;44978;-60
2022/12/05 02:41:36;;;;;;;;;48.25;29.50;;;;;6.76;62.34;101214.66;4995397;28;45854;-61
2022/12/05 02:44:14;;;;;;;;;54.75;39.50;;;;;6.67;62.67;101201.84;5012261;28;44903;-63
2022/12/05 02:46:41;;;;;;;;;47.25;34.25;;;;;6.71;62.47;101205.56;5016066;28;44926;-61
2022/12/05 02:49:15;;;;;;;;;53.25;38.00;;;;;6.79;62.48;101214.81;5032258;28;44762;-62
2022/12/05 02:51:45;;;;;;;;;45.50;32.75;;;;;6.76;62.63;101210.25;5016911;28;45223;-61
2022/12/05 02:54:22;;;;;;;;;50.50;37.50;;;;;6.74;62.56;101222.56;5016912;28;45046;-59
2022/12/05 02:56:49;;;;;;;;;44.75;36.25;;;;;6.69;62.76;101201.94;5012853;28;45293;-61
2022/12/05 02:59:15;;;;;;;;;42.25;35.75;;;;;6.67;61.92;101212.47;5014329;28;44987;-59
2022/12/05 03:01:44;;;;;;;;;44.00;35.25;;;;;6.65;62.59;101216.81;5014185;28;46005;-60
2022/12/05 03:04:11;;;;;;;;;41.75;37.25;;;;;6.63;62.53;101211.41;5021865;28;45183;-59
2022/12/05 03:06:52;;;;;;;;;53.75;38.75;;;;;6.66;62.57;101220.38;5018757;28;44935;-60
2022/12/05 03:09:23;;;;;;;;;44.75;33.00;;;;;6.63;63.25;101208.78;5030224;28;45275;-61
2022/12/05 03:12:01;;;;;;;;;44.25;34.25;;;;;6.59;63.47;101213.84;5021034;28;45863;-61
2022/12/05 03:14:36;;;;;;;;;25.25;22.50;;;;;6.64;62.63;101215.88;5029798;28;45295;-61
2022/12/05 03:17:09;;;;;;;;;55.50;36.75;;;;;6.62;63.39;101206.03;5017491;28;45076;-60
2022/12/05 03:19:58;;;;;;;;;41.25;34.25;;;;;6.55;62.75;101180.94;5021175;28;45186;-59
2022/12/05 03:22:47;;;;;;;;;42.50;32.50;;;;;6.52;63.02;101185.19;5018955;28;45818;-59
2022/12/05 03:25:13;;;;;;;;;37.50;32.00;;;;;6.60;62.98;101205.03;5021816;28;45200;-60
2022/12/05 03:27:38;;;;;;;;;49.00;36.75;;;;;6.75;62.93;101226.16;5027027;28;45112;-59
2022/12/05 03:30:08;;;;;;;;;48.00;35.75;;;;;6.73;62.39;101231.38;5022995;28;45174;-61
2022/12/05 03:32:46;;;;;;;;;47.75;37.00;;;;;6.69;62.55;101229.38;5016915;28;47391;-61
2022/12/05 03:35:11;;;;;;;;;40.75;34.75;;;;;6.71;62.48;101233.03;5022269;28;45096;-62
2022/12/05 03:37:44;;;;;;;;;38.50;34.75;;;;;6.68;62.60;101227.56;5021923;28;45510;-62
2022/12/05 03:40:35;;;;;;;;;44.50;35.75;;;;;6.66;62.53;101237.19;5015284;28;46563;-61
2022/12/05 03:43:12;;;;;;;;;51.25;39.75;;;;;6.63;62.14;101235.31;5024975;28;45578;-60
2022/12/05 03:45:46;;;;;;;;;42.25;35.25;;;;;6.54;62.03;101225.97;5018042;28;45145;-59
2022/12/05 03:48:20;;;;;;;;;40.25;35.00;;;;;6.58;62.54;101244.81;5024520;28;45311;-60
2022/12/05 03:50:50;;;;;;;;;49.50;35.25;;;;;6.49;62.44;101232.81;5028603;28;45115;-62
2022/12/05 03:53:23;;;;;;;;;38.75;32.25;;;;;6.51;63.09;101244.41;5029845;28;45670;-60
2022/12/05 03:55:58;;;;;;;;;36.50;33.00;;;;;6.45;62.97;101240.59;5027040;28;45135;-62
2022/12/05 03:58:39;;;;;;;;;61.25;39.00;;;;;6.45;63.16;101239.66;5029797;28;45261;-62
2022/12/05 04:01:09;;;;;;;;;31.25;29.50;;;;;6.46;62.49;101245.06;5036283;28;45087;-61
2022/12/05 04:03:50;;;;;;;;;49.00;37.50;;;;;6.36;62.59;101244.53;5023726;28;46029;-63
2022/12/05 04:06:30;;;;;;;;;44.00;35.75;;;;;6.45;62.73;101263.56;5012816;28;45022;-61
2022/12/05 04:09:01;;;;;;;;;47.00;36.50;;;;;6.33;63.16;101228.44;5024465;28;44990;-59
2022/12/05 04:11:33;;;;;;;;;44.75;29.75;;;;;6.42;63.34;101250.16;5012517;28;45242;-59
2022/12/05 04:14:05;;;;;;;;;51.00;36.00;;;;;6.46;63.58;101252.13;5020400;28;45321;-61
2022/12/05 04:21:36;;;;;;;;;54.00;38.50;;;;;6.58;62.34;101273.06;5030519;28;45213;-60
2022/12/05 04:22:14;;;;;;;;;33.75;28.75;;;;;6.54;62.06;101265.81;5025587;28;45334;-61
2022/12/05 04:27:39;;;;;;;;;45.25;35.75;;;;;6.56;62.30;101261.47;5020665;28;45055;-60
2022/12/05 04:30:18;;;;;;;;;37.00;32.25;;;;;6.53;62.72;101259.56;5026257;28;44946;-60
2022/12/05 04:32:52;;;;;;;;;53.75;35.25;;;;;6.53;62.32;101264.88;5009753;28;45301;-61
2022/12/05 04:35:34;;;;;;;;;33.75;33.00;;;;;6.40;62.06;101252.75;5022866;28;45469;-60
2022/12/05 04:38:07;;;;;;;;;42.75;36.25;;;;;6.53;62.43;101263.97;5024274;28;45161;-61
2022/12/05 04:40:43;;;;;;;;;35.75;33.00;;;;;6.43;62.54;101246.66;5013873;28;45215;-62
2022/12/05 04:43:11;;;;;;;;;38.50;31.75;;;;;6.48;62.65;101252.22;5011531;28;45111;-61
2022/12/05 04:45:39;;;;;;;;;33.75;31.75;;;;;6.45;62.41;101251.22;5010262;28;45134;-62
2022/12/05 04:48:10;;;;;;;;;42.75;32.75;;;;;6.48;62.20;101262.81;5023623;28;45389;-59
2022/12/05 04:50:38;;;;;;;;;38.75;32.00;;;;;6.54;62.65;101281.72;5016163;28;45345;-61
2022/12/05 04:53:05;;;;;;;;;48.75;35.75;;;;;6.49;62.36;101280.59;5023066;28;45030;-59
2022/12/05 04:55:34;;;;;;;;;39.25;33.00;;;;;6.47;62.16;101264.56;5016470;28;45748;-59
2022/12/05 04:58:08;;;;;;;;;42.50;32.25;;;;;6.56;62.55;101288.03;5016797;28;45591;-61
2022/12/05 05:00:43;;;;;;;;;36.00;32.75;;;;;6.56;62.73;101285.34;5027457;28;45269;-61
2022/12/05 05:03:17;;;;;;;;;41.25;35.00;;;;;6.63;62.68;101295.44;5030401;28;45872;-64
2022/12/05 05:05:47;;;;;;;;;56.25;37.75;;;;;6.64;62.74;101298.19;5025174;28;45796;-61
2022/12/05 05:08:18;;;;;;;;;46.25;33.00;;;;;6.60;62.63;101272.31;5015897;28;45027;-61
2022/12/05 05:10:53;;;;;;;;;39.25;33.00;;;;;6.73;63.18;101291.53;5017695;28;45222;-62
2022/12/05 05:13:19;;;;;;;;;58.75;42.00;;;;;6.57;62.67;101261.56;5021603;28;45139;-60
2022/12/05 05:15:44;;;;;;;;;31.50;29.00;;;;;6.76;61.99;101287.28;5013544;28;54000;-62
2022/12/05 05:18:09;;;;;;;;;55.00;37.75;;;;;6.70;62.04;101289.63;5020564;28;45014;-61
2022/12/05 05:20:35;;;;;;;;;38.75;29.50;;;;;6.69;61.83;101292.22;5039568;28;45379;-62
2022/12/05 05:23:03;;;;;;;;;35.75;29.25;;;;;6.68;61.82;101291.28;5020786;28;45061;-61
2022/12/05 05:25:28;;;;;;;;;39.75;27.50;;;;;6.49;61.97;101272.63;5010768;28;46193;-61
2022/12/05 05:27:55;;;;;;;;;35.00;27.75;;;;;6.60;62.21;101293.56;5012518;28;45232;-64
2022/12/05 05:30:22;;;;;;;;;46.50;31.00;;;;;6.61;63.20;101302.44;5031312;28;45159;-60
2022/12/05 05:32:48;;;;;;;;;40.75;28.75;;;;;6.58;61.97;101295.25;5011866;28;45129;-61
2022/12/05 05:35:14;;;;;;;;;36.50;27.50;;;;;6.39;62.60;101279.19;5013864;28;45641;-60
2022/12/05 05:37:40;;;;;;;;;34.50;32.00;;;;;6.55;63.06;101304.75;5018476;28;45052;-63
2022/12/05 05:40:08;;;;;;;;;32.75;25.25;;;;;6.36;61.95;101271.97;5020795;28;45060;-60
2022/12/05 05:42:33;;;;;;;;;29.00;27.25;;;;;6.53;62.71;101301.13;5023520;28;45549;-63
2022/12/05 05:44:59;;;;;;;;;42.00;29.50;;;;;6.58;62.65;101315.53;5010423;28;45855;-63
2022/12/05 05:47:24;;;;;;;;;35.25;27.25;;;;;6.58;63.26;101316.47;5023310;28;45049;-63
2022/12/05 05:49:49;;;;;;;;;43.75;30.25;;;;;6.61;62.25;101316.59;5011248;28;45146;-62
2022/12/05 05:52:15;;;;;;;;;33.25;29.50;;;;;6.57;62.86;101306.69;5028977;28;45242;-64
2022/12/05 05:54:40;;;;;;;;;29.50;25.00;;;;;6.66;62.86;101323.91;5015377;28;45377;-61
2022/12/05 05:57:05;;;;;;;;;33.50;26.75;;;;;6.59;62.95;101309.41;5030056;28;45124;-61
2022/12/05 05:59:31;;;;;;;;;27.00;23.75;;;;;6.56;62.60;101306.59;5019050;28;45068;-62
2022/12/05 06:01:56;;;;;;;;;44.75;28.75;;;;;6.64;62.68;101324.75;5039405;28;45182;-62
2022/12/05 06:04:22;;;;;;;;;32.25;28.00;;;;;6.60;63.11;101322.78;5013598;28;50093;-63
2022/12/05 06:06:47;;;;;;;;;37.25;32.25;;;;;6.70;63.41;101334.78;5009895;28;45022;-61
2022/12/05 06:09:12;;;;;;;;;42.00;28.50;;;;;6.61;62.71;101316.59;5024996;28;45018;-64
2022/12/05 06:11:38;;;;;;;;;37.75;29.25;;;;;6.64;62.40;101318.53;5022388;28;44993;-64
2022/12/05 06:14:03;;;;;;;;;36.00;32.25;;;;;6.66;62.51;101319.50;5024501;28;62270;-60
2022/12/05 06:16:30;;;;;;;;;48.75;38.00;;;;;6.77;62.79;101346.63;5018866;28;45114;-61
2022/12/05 06:18:55;;;;;;;;;42.75;35.00;;;;;6.71;62.47;101322.41;5013487;28;45497;-64
2022/12/05 06:21:21;;;;;;;;;36.50;30.50;;;;;6.77;62.42;101333.34;5012912;28;45139;-61
2022/12/05 06:23:47;;;;;;;;;37.00;27.00;;;;;6.76;62.82;101336.81;5031032;28;45415;-62
2022/12/05 06:26:15;;;;;;;;;34.25;24.25;;;;;6.69;61.59;101334.69;5019122;28;45241;-60
2022/12/05 06:28:41;;;;;;;;;34.75;22.50;;;;;6.68;61.69;101333.75;5038058;28;45126;-60
2022/12/05 06:31:18;;;;;;;;;32.00;26.75;;;;;6.63;61.70;101335.28;5027612;28;45224;-60
2022/12/05 06:33:44;;;;;;;;;47.75;29.75;;;;;6.72;62.13;101356.09;5025103;28;45267;-62
2022/12/05 06:36:12;;;;;;;;;31.25;26.50;;;;;6.73;62.94;101360.56;5026612;28;45459;-60
2022/12/05 06:38:39;;;;;;;;;34.00;28.00;;;;;6.79;63.14;101368.84;5025828;28;45221;-62
2022/12/05 06:41:13;;;;;;;;;57.75;45.00;;;;;6.80;62.39;101366.28;5020123;28;45158;-63
2022/12/05 06:43:38;;;;;;;;;43.50;31.50;;;;;6.81;62.06;101372.50;5020771;28;46364;-61
2022/12/05 06:46:05;;;;;;;;;64.50;50.50;;;;;6.74;62.48;101352.69;5029084;28;45096;-61
2022/12/05 06:48:31;;;;;;;;;57.25;42.75;;;;;6.85;62.87;101374.50;5026139;28;45195;-59
2022/12/05 06:50:56;;;;;;;;;56.00;40.50;;;;;6.83;62.60;101370.84;5020628;28;45262;-61
2022/12/05 06:53:21;;;;;;;;;45.75;36.00;;;;;6.78;62.87;101367.03;5019505;28;45428;-62
2022/12/05 06:56:01;;;;;;;;;36.25;27.00;;;;;6.86;62.41;101383.34;5030610;28;44955;-60
2022/12/05 06:58:26;;;;;;;;;45.75;34.75;;;;;6.87;61.71;101383.44;5033307;28;45153;-60
2022/12/05 07:03:37;;;;;;;;;34.75;28.75;;;;;6.77;62.30;101387.38;5020059;28;45123;-62
2022/12/05 07:06:04;;;;;;;;;43.50;33.75;;;;;6.64;61.75;101369.88;5023389;28;44995;-61
2022/12/05 07:08:31;;;;;;;;;31.75;28.50;;;;;6.72;62.66;101386.22;5024849;28;44984;-62
2022/12/05 07:10:56;;;;;;;;;30.25;25.25;;;;;6.52;62.08;101355.97;5020927;28;45137;-60
2022/12/05 07:13:22;;;;;;;;;35.50;27.00;;;;;6.76;62.25;101397.91;5030889;28;45357;-62
2022/12/05 07:15:47;;;;;;;;;36.25;29.00;;;;;6.75;62.50;101401.41;5013231;28;45284;-62
2022/12/05 07:18:15;;;;;;;;;55.75;38.50;;;;;6.67;61.95;101389.47;5023869;28;45191;-62
2022/12/05 07:20:40;;;;;;;;;33.75;28.00;;;;;6.76;62.17;101406.78;5027404;28;45358;-61
2022/12/05 07:23:06;;;;;;;;;42.25;28.00;;;;;6.72;61.47;101404.81;5018918;28;45170;-63
2022/12/05 07:25:32;;;;;;;;;35.25;27.25;;;;;6.69;61.34;101403.75;5012723;28;45072;-61
2022/12/05 07:27:57;;;;;;;;;32.75;29.75;;;;;6.71;62.55;101413.59;5013321;28;44893;-61
2022/12/05 07:30:25;;;;;;;;;32.50;25.25;;;;;6.73;61.90;101411.94;5024554;28;45065;-63
2022/12/05 07:32:51;;;;;;;;;35.75;28.00;;;;;6.69;62.78;101417.91;5023479;28;46059;-62
2022/12/05 07:35:16;;;;;;;;;41.25;29.25;;;;;6.70;61.92;101419.75;5030085;28;45076;-60
2022/12/05 07:37:41;;;;;;;;;37.75;24.25;;;;;6.72;62.05;101419.84;5015620;28;45127;-60
2022/12/05 07:40:07;;;;;;;;;45.25;31.50;;;;;6.68;62.20;101415.19;5013476;28;45151;-63
2022/12/05 07:42:32;;;;;;;;;43.00;33.75;;;;;6.56;62.50;101407.47;5017091;28;47804;-61
2022/12/05 07:44:58;;;;;;;;;44.00;31.50;;;;;6.63;61.80;101428.19;5017244;28;45042;-62
2022/12/05 07:47:23;;;;;;;;;53.25;39.25;;;;;6.60;62.43;101428.03;5013410;28;51076;-64
2022/12/05 07:49:48;;;;;;;;;40.25;30.75;;;;;6.53;62.51;101425.91;5001583;28;45419;-66
2022/12/05 07:52:14;;;;;;;;;41.25;35.50;;;;;6.52;62.95;101411.72;5010252;28;49452;-67
2022/12/05 07:54:39;;;;;;;;;50.50;38.50;;;;;6.62;62.03;101440.56;5007361;28;45500;-59
2022/12/05 07:57:05;;;;;;;;;34.00;31.25;;;;;6.49;62.10;101415.97;5010426;28;45911;-64
2022/12/05 07:59:30;;;;;;;;;28.00;28.00;;;;;6.48;62.13;101414.13;5010850;28;45568;-68
2022/12/05 08:01:56;;;;;;;;;37.00;29.75;;;;;6.46;62.38;101412.28;5011048;28;45650;-64
2022/12/05 08:04:21;;;;;;;;;27.00;20.25;;;;;6.51;61.87;101432.88;5008756;28;45709;-64
2022/12/05 08:06:47;;;;;;;;;38.75;29.25;;;;;6.52;62.32;101440.91;5008118;28;45808;-68
2022/12/05 08:09:12;;;;;;;;;36.75;33.00;;;;;6.33;63.61;101412.47;5002019;28;45643;-64
2022/12/05 08:11:37;;;;;;;;;43.25;34.25;;;;;6.58;63.66;101465.16;5006777;28;45924;-62
2022/12/05 08:14:04;;;;;;;;;40.75;31.50;;;;;6.62;63.26;101460.91;5007709;28;45618;-66
2022/12/05 08:16:31;;;;;;;;;41.00;31.50;;;;;6.58;62.82;101465.16;5009084;28;45321;-64
2022/12/05 08:19:05;;;;;;;;;38.25;35.25;;;;;6.48;63.45;101459.25;5005621;28;45581;-61
2022/12/05 08:21:31;;;;;;;;;49.75;31.50;;;;;6.34;63.36;101442.59;5005718;28;47284;-66
2022/12/05 08:23:57;;;;;;;;;42.00;31.75;;;;;6.44;63.16;101466.13;5012160;28;45530;-64
2022/12/05 08:26:25;;;;;;;;;30.25;27.25;;;;;6.32;62.65;101465.44;5003510;28;45538;-69
2022/12/05 08:28:54;;;;;;;;;36.25;28.50;;;;;6.16;63.23;101450.44;5007660;28;45434;-69
2022/12/05 08:31:22;;;;;;;;;38.50;29.00;;;;;6.35;63.19;101470.94;5011914;28;48166;-62
2022/12/05 08:33:48;;;;;;;;;36.75;30.75;;;;;6.43;63.54;101482.88;5012519;28;45518;-64
2022/12/05 08:36:14;;;;;;;;;39.00;35.75;;;;;6.45;62.99;101479.50;5011417;28;45518;-64
2022/12/05 08:38:41;;;;;;;;;36.25;28.00;;;;;6.44;62.63;101477.66;5009844;28;45564;-63
2022/12/05 08:41:09;;;;;;;;;43.75;33.50;;;;;6.43;63.10;101467.88;5011203;28;45470;-63
2022/12/05 08:43:40;;;;;;;;;43.75;33.50;;;;;6.30;63.22;101436.16;5004687;28;45586;-70
2022/12/05 08:46:06;;;;;;;;;55.00;42.50;;;;;6.48;64.95;101461.91;5012476;28;45445;-66
2022/12/05 08:48:32;;;;;;;;;45.50;34.75;;;;;6.62;62.73;101482.16;5013529;28;45628;-61
2022/12/05 08:50:58;;;;;;;;;55.25;38.00;;;;;6.45;62.70;101442.34;5012932;28;46534;-61
2022/12/05 08:53:25;;;;;;;;;53.25;39.25;;;;;6.61;62.97;101472.34;5009579;28;45287;-61
2022/12/05 08:55:50;;;;;;;;;45.50;36.25;;;;;6.68;63.34;101473.59;5006935;28;45441;-60
2022/12/05 08:58:16;;;;;;;;;39.50;34.50;;;;;6.59;62.98;101468.72;5013481;28;45567;-63
2022/12/05 09:00:42;;;;;;;;;38.00;35.25;;;;;6.59;62.80;101472.28;5013620;28;45660;-60
2022/12/05 09:03:10;;;;;;;;;51.25;38.25;;;;;6.68;63.25;101493.09;5010227;28;45395;-61
2022/12/05 09:05:35;;;;;;;;;43.00;35.50;;;;;6.60;62.89;101483.78;5005839;28;45442;-63
2022/12/05 09:08:00;;;;;;;;;47.75;34.75;;;;;6.57;62.43;101479.25;5011728;28;45661;-60
2022/12/05 09:10:26;;;;;;;;;43.00;32.00;;;;;6.47;62.33;101466.31;5005388;28;47821;-63
2022/12/05 09:12:51;;;;;;;;;36.25;32.50;;;;;6.59;63.09;101488.19;5008326;28;45448;-61
2022/12/05 09:15:17;;;;;;;;;42.00;31.50;;;;;6.73;62.95;101507.56;5011283;28;45477;-59
2022/12/05 09:17:43;;;;;;;;;41.75;35.75;;;;;6.29;62.58;101415.78;5027038;28;45561;-59
2022/12/05 09:20:12;;;;;;;;;55.50;40.00;;;;;6.71;63.33;101500.31;5005467;28;46390;-60
2022/12/05 09:22:38;;;;;;;;;42.75;36.25;;;;;6.62;63.34;101472.44;4998558;28;45526;-59
2022/12/05 09:25:04;;;;;;;;;53.50;39.75;;;;;6.73;63.50;101488.03;5009641;28;45545;-64
2022/12/05 09:27:30;;;;;;;;;44.50;32.25;;;;;6.79;62.50;101509.63;5012769;28;45418;-61
2022/12/05 09:29:56;;;;;;;;;52.50;40.50;;;;;6.78;62.72;101506.06;5010064;28;45502;-62
2022/12/05 09:32:22;;;;;;;;;39.50;33.25;;;;;6.75;61.90;101505.88;5013622;28;45469;-68
2022/12/05 09:34:47;;;;;;;;;34.00;27.50;;;;;6.72;62.18;101512.78;5011546;28;46381;-68
2022/12/05 09:37:12;;;;;;;;;44.00;36.00;;;;;6.64;61.97;101489.34;5011675;28;45481;-64
2022/12/05 09:39:38;;;;;;;;;35.00;24.50;;;;;6.71;62.23;101495.91;5012343;28;47976;-66
2022/12/05 09:42:31;;;;;;;;;47.25;36.00;;;;;6.80;62.70;101514.09;5010593;28;45447;-65
2022/12/05 09:45:25;;;;;;;;;48.00;38.75;;;;;6.75;62.74;101503.22;5006416;28;45491;-61
2022/12/05 09:47:58;;;;;;;;;42.50;34.50;;;;;6.83;61.82;101509.88;5005221;28;46260;-57
2022/12/05 09:50:51;;;;;;;;;36.25;31.75;;;;;6.89;61.72;101524.31;5011188;28;45461;-61
2022/12/05 09:53:29;;;;;;;;;54.50;44.00;;;;;6.76;62.30;101502.38;5014547;28;45481;-58
2022/12/05 09:56:03;;;;;;;;;43.25;33.75;;;;;6.85;62.11;101527.59;5016193;28;45461;-61
2022/12/05 09:58:31;;;;;;;;;42.50;34.00;;;;;6.90;61.87;101519.06;5014711;28;45567;-59
2022/12/05 10:01:32;;;;;;;;;54.75;38.00;;;;;6.90;61.88;101528.81;5010324;28;45555;-61
2022/12/05 10:04:09;;;;;;;;;42.75;36.50;;;;;6.91;61.88;101528.84;5008569;28;45454;-59
2022/12/05 10:07:02;;;;;;;;;46.25;35.00;;;;;6.89;61.23;101530.50;5015462;28;45404;-60
2022/12/05 10:09:39;;;;;;;;;44.50;32.75;;;;;6.87;60.85;101534.84;5015556;28;45522;-61
2022/12/05 10:12:29;;;;;;;;;53.75;38.25;;;;;6.87;61.80;101523.31;5017211;28;45477;-65
2022/12/05 10:15:30;;;;;;;;;53.25;39.50;;;;;6.89;61.78;101537.59;5011872;28;45499;-62
2022/12/05 10:18:02;;;;;;;;;55.00;39.50;;;;;6.91;62.49;101528.84;5007173;28;45478;-67
2022/12/05 10:20:34;;;;;;;;;49.50;38.25;;;;;6.79;61.03;101514.91;5006466;28;45634;-60
2022/12/05 10:23:19;;;;;;;;;39.50;36.75;;;;;6.97;61.16;101536.25;5010286;28;46604;-60
2022/12/05 10:25:47;;;;;;;;;30.50;25.25;;;;;6.83;59.69;101519.59;5024366;28;45384;-61
2022/12/05 10:28:31;;;;;;;;;46.00;37.75;;;;;6.94;60.62;101537.00;5031120;28;45429;-62
2022/12/05 10:31:01;;;;;;;;;52.75;40.00;;;;;6.92;61.26;101537.75;5022548;28;45159;-61
2022/12/05 10:33:34;;;;;;;;;53.00;35.25;;;;;6.88;60.16;101514.50;5012495;28;45677;-64
2022/12/05 10:36:01;;;;;;;;;52.25;38.00;;;;;7.01;60.88;101530.25;5012293;28;45494;-59
2022/12/05 10:38:34;;;;;;;;;56.50;41.75;;;;;7.06;61.37;101527.84;5012074;28;44994;-59
2022/12/05 10:41:05;;;;;;;;;56.75;41.50;;;;;7.03;60.92;101520.66;5012827;28;45523;-60
2022/12/05 10:43:33;;;;;;;;;42.25;34.00;;;;;7.00;60.00;101512.50;5023409;28;45538;-60
2022/12/05 10:46:00;;;;;;;;;43.25;38.00;;;;;7.04;60.42;101535.75;5022982;28;45360;-60
2022/12/05 10:48:26;;;;;;;;;54.75;39.00;;;;;7.04;59.79;101530.44;5026581;28;45317;-62
2022/12/05 10:50:54;;;;;;;;;54.00;37.00;;;;;7.02;59.48;101529.44;5023540;28;45079;-61
2022/12/05 10:53:28;;;;;;;;;47.00;35.00;;;;;6.91;59.34;101525.28;5002650;28;46145;-62
2022/12/05 10:55:54;;;;;;;;;44.25;35.75;;;;;6.85;59.04;101520.56;5010713;28;45611;-62
2022/12/05 10:58:23;;;;;;;;;55.25;38.00;;;;;6.73;60.18;101525.22;5010850;28;45524;-60
2022/12/05 11:00:54;;;;;;;;;52.25;38.50;;;;;6.79;59.85;101529.09;5002103;28;45489;-62
2022/12/05 11:03:28;;;;;;;;;49.50;38.50;;;;;6.81;59.80;101542.47;5013069;28;46320;-62
2022/12/05 11:05:56;;;;;;;;;43.75;29.75;;;;;6.81;59.29;101538.09;5017241;28;45422;-61
2022/12/05 11:08:30;;;;;;;;;35.75;34.75;;;;;6.88;59.74;101538.41;5015626;28;45429;-62
2022/12/05 11:11:20;;;;;;;;;53.50;37.00;;;;;6.88;59.04;101536.69;5014340;28;45533;-63
2022/12/05 11:13:54;;;;;;;;;55.50;41.00;;;;;6.92;59.50;101538.66;5005427;28;47647;-62
2022/12/05 11:16:35;;;;;;;;;51.25;41.75;;;;;6.96;59.64;101531.75;5007963;28;46532;-61
2022/12/05 11:19:32;;;;;;;;;60.00;42.25;;;;;7.05;59.05;101531.34;5009600;28;45487;-62
2022/12/05 11:21:59;;;;;;;;;51.75;38.75;;;;;7.06;59.28;101528.78;5008063;28;45447;-61
2022/12/05 11:24:31;;;;;;;;;55.00;35.25;;;;;6.97;58.59;101518.56;5007395;28;45429;-63
2022/12/05 11:26:58;;;;;;;;;55.00;38.75;;;;;7.03;59.26;101543.63;5006325;28;45589;-63
2022/12/05 11:29:37;;;;;;;;;60.00;47.75;;;;;6.98;58.89;101536.34;5007412;28;45660;-62
2022/12/05 11:32:05;;;;;;;;;50.75;40.25;;;;;6.85;59.36;101517.91;5006113;28;45665;-61
2022/12/05 11:34:41;;;;;;;;;61.00;43.25;;;;;7.05;59.00;101542.88;5020880;28;46269;-61
2022/12/05 11:37:17;;;;;;;;;51.75;39.50;;;;;6.98;58.31;101522.16;5008616;28;46156;-63
2022/12/05 11:39:42;;;;;;;;;43.25;35.25;;;;;7.03;58.61;101540.97;5007759;28;45543;-60